Time;durP1;ratioP1;P1;durP2;ratioP2;P2;SDS_P1;SDS_P2;PMS_P1;PMS_P2;Temp;Humidity;BMP_temperature;BMP_pressure;BME280_temperature;BME280_humidity;BME280_pressure;Samples;Min_cycle;Max_cycle;Signal;HPM_P1;HPM_P2
2022/04/14 00:00:27;;;;;;;8.80;6.00;;;;;;101085.81;;;;107139;1274;64916;-35
2022/04/14 00:03:04;;;;;;;9.10;6.40;;;;;;101086.25;;;;107134;1274;64742;-36
2022/04/14 00:05:31;;;;;;;8.20;5.90;;;;;;101085.75;;;;107042;1275;64856;-35
2022/04/14 00:08:02;;;;;;;8.50;6.00;;;;;;101086.08;;;;107167;1274;66198;-35
2022/04/14 00:10:29;;;;;;;9.30;6.30;;;;;;101085.15;;;;107150;1274;64892;-36
2022/04/14 00:13:00;;;;;;;8.80;5.60;;;;;;101083.51;;;;107072;1276;64756;-36
2022/04/14 00:15:28;;;;;;;8.60;6.00;;;;;;101082.17;;;;107102;1275;64836;-31
2022/04/14 00:17:59;;;;;;;8.60;6.00;;;;;;101079.98;;;;107084;1274;64852;-32
2022/04/14 00:20:26;;;;;;;8.30;5.80;;;;;;101079.42;;;;107160;1274;65880;-36
2022/04/14 00:22:56;;;;;;;8.40;5.90;;;;;;101076.09;;;;107145;1274;64862;-36
2022/04/14 00:25:24;;;;;;;8.70;6.00;;;;;;101078.64;;;;107127;1274;64770;-30
2022/04/14 00:27:51;;;;;;;8.10;5.70;;;;;;101081.27;;;;107118;1274;64838;-31
2022/04/14 00:30:18;;;;;;;7.20;5.40;;;;;;101081.93;;;;107160;1276;64942;-30
2022/04/14 00:32:46;;;;;;;8.20;5.60;;;;;;101078.80;;;;107144;1274;65652;-31
2022/04/14 00:35:16;;;;;;;9.20;6.10;;;;;;101073.45;;;;107136;1274;64837;-35
2022/04/14 00:37:46;;;;;;;9.20;6.40;;;;;;101071.98;;;;107147;1274;64778;-34
2022/04/14 00:40:13;;;;;;;8.70;6.30;;;;;;101067.74;;;;107100;1274;64759;-30
2022/04/14 00:42:44;;;;;;;9.30;6.10;;;;;;101063.13;;;;107178;1274;64882;-31
2022/04/14 00:45:12;;;;;;;7.80;5.60;;;;;;101064.16;;;;107138;1274;64862;-36
2022/04/14 00:47:43;;;;;;;8.60;6.00;;;;;;101065.72;;;;107023;1274;64870;-35
2022/04/14 00:50:12;;;;;;;7.50;5.60;;;;;;101065.40;;;;107163;1274;63588;-35
2022/04/14 00:52:47;;;;;;;9.90;6.40;;;;;;101064.73;;;;107100;1274;64793;-38
2022/04/14 00:55:14;;;;;;;9.10;6.10;;;;;;101061.99;;;;107028;1274;64956;-34
2022/04/14 00:57:45;;;;;;;8.10;5.90;;;;;;101059.29;;;;107158;1274;65629;-35
2022/04/14 01:00:13;;;;;;;7.80;6.30;;;;;;101058.93;;;;107174;1274;64810;-35
2022/04/14 01:02:44;;;;;;;8.40;5.80;;;;;;101061.27;;;;107064;1275;64781;-35
2022/04/14 01:05:13;;;;;;;8.60;6.50;;;;;;101060.48;;;;107186;1274;64754;-31
2022/04/14 01:07:45;;;;;;;9.10;6.00;;;;;;101059.66;;;;107039;1276;64945;-31
2022/04/14 01:10:17;;;;;;;8.20;5.90;;;;;;101058.92;;;;107053;1275;64896;-31
2022/04/14 01:12:47;;;;;;;8.70;5.90;;;;;;101055.16;;;;107075;1274;65005;-31
2022/04/14 01:15:15;;;;;;;8.20;5.80;;;;;;101055.98;;;;107061;1276;64879;-30
2022/04/14 01:17:43;;;;;;;7.30;5.40;;;;;;101058.31;;;;107167;1274;64842;-32
2022/04/14 01:20:13;;;;;;;7.80;5.90;;;;;;101058.93;;;;107055;1276;64767;-35
2022/04/14 01:23:03;;;;;;;8.50;6.10;;;;;;101062.94;;;;107157;1274;66429;-36
2022/04/14 01:25:32;;;;;;;8.30;5.80;;;;;;101066.01;;;;107119;1274;64722;-41
2022/04/14 01:27:59;;;;;;;8.10;5.90;;;;;;101064.60;;;;107152;1274;64723;-36
2022/04/14 01:30:26;;;;;;;9.10;6.40;;;;;;101064.79;;;;107140;1274;64760;-31
2022/04/14 01:32:57;;;;;;;9.20;6.50;;;;;;101064.73;;;;107139;1274;64952;-30
2022/04/14 01:35:24;;;;;;;8.80;6.60;;;;;;101063.30;;;;107151;1274;66119;-31
2022/04/14 01:37:54;;;;;;;9.20;6.40;;;;;;101062.27;;;;107155;1274;64744;-31
2022/04/14 01:40:21;;;;;;;8.90;6.20;;;;;;101060.86;;;;107154;1274;64745;-31
2022/04/14 01:42:49;;;;;;;8.90;6.20;;;;;;101061.83;;;;107135;1274;64906;-31
2022/04/14 01:45:19;;;;;;;8.50;6.30;;;;;;101064.13;;;;107142;1274;64879;-35
2022/04/14 01:47:49;;;;;;;8.20;6.40;;;;;;101062.48;;;;107169;1274;67533;-34
2022/04/14 01:50:18;;;;;;;8.70;6.20;;;;;;101066.38;;;;107176;1275;64770;-35
2022/04/14 01:52:48;;;;;;;8.30;6.40;;;;;;101067.67;;;;107143;1274;64789;-36
2022/04/14 01:55:16;;;;;;;9.80;6.30;;;;;;101066.75;;;;107133;1274;64921;-35
2022/04/14 01:57:46;;;;;;;8.30;5.80;;;;;;101066.86;;;;107015;1277;64772;-35
2022/04/14 02:00:16;;;;;;;8.90;6.20;;;;;;101067.44;;;;107152;1274;65948;-35
2022/04/14 02:02:46;;;;;;;9.60;6.60;;;;;;101065.23;;;;107166;1274;65452;-35
2022/04/14 02:05:13;;;;;;;8.90;6.40;;;;;;101058.23;;;;107163;1274;65456;-30
2022/04/14 02:07:43;;;;;;;9.70;6.80;;;;;;101056.48;;;;107136;1274;64763;-31
2022/04/14 02:10:13;;;;;;;8.90;6.30;;;;;;101059.20;;;;107141;1274;64895;-31
2022/04/14 02:12:45;;;;;;;8.40;6.20;;;;;;101058.33;;;;107149;1274;66002;-31
2022/04/14 02:15:16;;;;;;;8.00;5.80;;;;;;101059.84;;;;107133;1275;64786;-34
2022/04/14 02:17:43;;;;;;;8.90;6.20;;;;;;101061.62;;;;107166;1274;64784;-40
2022/04/14 02:20:14;;;;;;;9.00;6.50;;;;;;101065.48;;;;107175;1274;64744;-31
2022/04/14 02:22:42;;;;;;;9.20;6.60;;;;;;101067.33;;;;107170;1274;64898;-31
2022/04/14 02:25:10;;;;;;;8.90;6.20;;;;;;101066.94;;;;107161;1274;66141;-31
2022/04/14 02:27:37;;;;;;;8.90;6.80;;;;;;101063.08;;;;107071;1274;64902;-30
2022/04/14 02:30:08;;;;;;;8.90;6.40;;;;;;101057.56;;;;107153;1274;64743;-34
2022/04/14 02:32:39;;;;;;;8.40;6.30;;;;;;101058.48;;;;107149;1277;64899;-35
2022/04/14 02:35:10;;;;;;;8.90;6.60;;;;;;101056.81;;;;107159;1274;64849;-35
2022/04/14 02:37:37;;;;;;;8.70;6.70;;;;;;101055.17;;;;107187;1274;67132;-33
2022/04/14 02:40:07;;;;;;;9.10;6.70;;;;;;101053.91;;;;107114;1274;64876;-35
2022/04/14 02:42:34;;;;;;;10.30;7.20;;;;;;101051.98;;;;107175;1274;64842;-35
2022/04/14 02:45:05;;;;;;;8.40;6.60;;;;;;101050.84;;;;107149;1274;64908;-31
2022/04/14 02:47:32;;;;;;;9.30;6.80;;;;;;101048.77;;;;107176;1274;64882;-31
2022/04/14 02:50:03;;;;;;;9.50;6.80;;;;;;101046.69;;;;107178;1274;65167;-35
2022/04/14 02:52:33;;;;;;;9.20;6.60;;;;;;101047.16;;;;107141;1274;64901;-35
2022/04/14 02:55:00;;;;;;;10.00;7.00;;;;;;101045.08;;;;107163;1274;64735;-35
2022/04/14 02:57:30;;;;;;;9.00;6.60;;;;;;101047.80;;;;107125;1274;65059;-36
2022/04/14 02:59:58;;;;;;;9.30;6.70;;;;;;101049.41;;;;107179;1274;64858;-35
2022/04/14 03:02:25;;;;;;;10.40;7.50;;;;;;101048.66;;;;107186;1274;66562;-35
2022/04/14 03:04:53;;;;;;;8.70;6.90;;;;;;101047.39;;;;107117;1274;64828;-35
2022/04/14 03:07:20;;;;;;;9.30;6.70;;;;;;101042.30;;;;107148;1274;64744;-36
2022/04/14 03:09:50;;;;;;;10.60;7.20;;;;;;101043.83;;;;107136;1275;64824;-35
2022/04/14 03:12:17;;;;;;;10.00;7.60;;;;;;101043.39;;;;107148;1274;64836;-35
2022/04/14 03:14:49;;;;;;;8.80;6.70;;;;;;101046.92;;;;107193;1274;66477;-39
2022/04/14 03:17:18;;;;;;;10.00;7.20;;;;;;101046.67;;;;107143;1274;64993;-31
2022/04/14 03:19:45;;;;;;;9.80;7.60;;;;;;101047.31;;;;107064;1276;64864;-30
2022/04/14 03:22:12;;;;;;;11.10;7.10;;;;;;101044.75;;;;107111;1276;64754;-31
2022/04/14 03:24:39;;;;;;;9.70;7.20;;;;;;101042.27;;;;107125;1276;64969;-31
2022/04/14 03:27:06;;;;;;;8.90;7.20;;;;;;101044.58;;;;107128;1276;66122;-31
2022/04/14 03:29:34;;;;;;;9.50;6.90;;;;;;101041.97;;;;107142;1276;64758;-35
2022/04/14 03:32:01;;;;;;;10.00;6.80;;;;;;101038.39;;;;107145;1277;64725;-35
2022/04/14 03:34:32;;;;;;;9.20;7.00;;;;;;101033.52;;;;107100;1276;64885;-35
2022/04/14 03:36:59;;;;;;;10.80;7.60;;;;;;101030.80;;;;107057;1276;64828;-35
2022/04/14 03:39:26;;;;;;;9.30;6.70;;;;;;101026.23;;;;107156;1276;66487;-31
2022/04/14 03:41:53;;;;;;;8.80;7.00;;;;;;101021.83;;;;107131;1277;64741;-30
2022/04/14 03:44:20;;;;;;;8.90;6.70;;;;;;101019.48;;;;107128;1276;64776;-35
2022/04/14 03:46:47;;;;;;;10.00;7.00;;;;;;101017.42;;;;107101;1276;64777;-36
2022/04/14 03:49:18;;;;;;;10.70;7.40;;;;;;101016.39;;;;107149;1276;64875;-32
2022/04/14 03:51:45;;;;;;;10.20;7.80;;;;;;101013.95;;;;107143;1276;66506;-31
2022/04/14 03:54:15;;;;;;;10.40;6.90;;;;;;101015.70;;;;107129;1276;64806;-31
2022/04/14 03:56:42;;;;;;;9.50;7.40;;;;;;101016.09;;;;107037;1276;64718;-31
2022/04/14 03:59:13;;;;;;;9.70;7.40;;;;;;101016.22;;;;107052;1276;65503;-35
2022/04/14 04:01:41;;;;;;;10.20;7.20;;;;;;101015.71;;;;107169;1276;64870;-35
2022/04/14 04:04:11;;;;;;;10.40;7.30;;;;;;101019.77;;;;107125;1276;64919;-34
2022/04/14 04:06:38;;;;;;;10.00;7.70;;;;;;101019.95;;;;107124;1276;64789;-35
2022/04/14 04:09:09;;;;;;;10.20;6.90;;;;;;101018.80;;;;107146;1276;64780;-35
2022/04/14 04:11:36;;;;;;;8.60;7.00;;;;;;101019.60;;;;107109;1276;64950;-37
2022/04/14 04:14:06;;;;;;;9.40;7.50;;;;;;101014.20;;;;106939;1276;270090;-31
2022/04/14 04:16:34;;;;;;;9.80;7.30;;;;;;101009.67;;;;107145;1276;66411;-32
2022/04/14 04:19:04;;;;;;;10.20;7.60;;;;;;101007.45;;;;107155;1276;64855;-31
2022/04/14 04:21:32;;;;;;;10.20;7.40;;;;;;101001.48;;;;107006;1276;64757;-31
2022/04/14 04:23:59;;;;;;;11.80;8.00;;;;;;101005.02;;;;107146;1274;65566;-35
2022/04/14 04:26:26;;;;;;;9.80;7.10;;;;;;101006.63;;;;107151;1274;64757;-36
2022/04/14 04:28:56;;;;;;;10.60;7.50;;;;;;101002.41;;;;107147;1274;65253;-34
2022/04/14 04:31:24;;;;;;;10.50;7.50;;;;;;100999.77;;;;107140;1274;64751;-36
2022/04/14 04:33:54;;;;;;;10.30;7.70;;;;;;100997.66;;;;107119;1274;64827;-36
2022/04/14 04:36:22;;;;;;;10.10;7.00;;;;;;100994.94;;;;107112;1274;64728;-35
2022/04/14 04:38:52;;;;;;;10.10;7.50;;;;;;100991.69;;;;107183;1275;63688;-34
2022/04/14 04:41:20;;;;;;;10.10;7.70;;;;;;100997.23;;;;107011;1275;65108;-35
2022/04/14 04:43:50;;;;;;;10.70;8.10;;;;;;100994.59;;;;107149;1274;64758;-31
2022/04/14 04:46:20;;;;;;;10.10;7.90;;;;;;100995.05;;;;107133;1275;64807;-31
2022/04/14 04:48:51;;;;;;;10.00;7.60;;;;;;100994.52;;;;107043;1277;64807;-35
2022/04/14 04:51:21;;;;;;;9.90;7.30;;;;;;100990.97;;;;107161;1275;64731;-35
2022/04/14 04:53:48;;;;;;;10.30;7.60;;;;;;100990.88;;;;107144;1277;65281;-31
2022/04/14 04:56:18;;;;;;;10.70;7.80;;;;;;100992.63;;;;107142;1277;64725;-30
2022/04/14 04:58:48;;;;;;;10.30;8.00;;;;;;100994.92;;;;107122;1274;64761;-34
2022/04/14 05:01:16;;;;;;;11.40;7.70;;;;;;100998.40;;;;107144;1275;64757;-35
2022/04/14 05:03:44;;;;;;;11.10;7.80;;;;;;101000.28;;;;107177;1274;64776;-34
2022/04/14 05:06:11;;;;;;;9.90;7.70;;;;;;100997.27;;;;107043;1276;66410;-35
2022/04/14 05:08:39;;;;;;;10.50;7.60;;;;;;100997.34;;;;107078;1277;64854;-31
2022/04/14 05:11:06;;;;;;;9.20;7.20;;;;;;100994.48;;;;107129;1274;64847;-29
2022/04/14 05:13:36;;;;;;;10.00;7.00;;;;;;100993.73;;;;107128;1275;64708;-31
2022/04/14 05:16:06;;;;;;;10.30;7.60;;;;;;100992.21;;;;107150;1274;63591;-31
2022/04/14 05:18:33;;;;;;;11.20;7.70;;;;;;100991.59;;;;107167;1275;66096;-32
2022/04/14 05:21:01;;;;;;;10.00;7.80;;;;;;100989.76;;;;107122;1274;64875;-30
2022/04/14 05:23:29;;;;;;;10.80;8.00;;;;;;100988.33;;;;107133;1274;64876;-32
2022/04/14 05:25:59;;;;;;;11.30;7.60;;;;;;100987.59;;;;107138;1275;64878;-35
2022/04/14 05:28:27;;;;;;;9.50;7.40;;;;;;100988.52;;;;107138;1275;64761;-32
2022/04/14 05:30:54;;;;;;;9.60;7.60;;;;;;100984.93;;;;107167;1275;66131;-31
2022/04/14 05:33:21;;;;;;;10.10;7.50;;;;;;100989.61;;;;107101;1276;64766;-31
2022/04/14 05:35:52;;;;;;;11.80;7.70;;;;;;100991.27;;;;107135;1274;64785;-32
2022/04/14 05:38:19;;;;;;;9.90;7.10;;;;;;100989.41;;;;107145;1274;64855;-31
2022/04/14 05:40:50;;;;;;;10.60;8.00;;;;;;100990.03;;;;107159;1275;64741;-36
2022/04/14 05:43:21;;;;;;;11.00;7.60;;;;;;100989.04;;;;107155;1274;66469;-35
2022/04/14 05:45:52;;;;;;;10.20;7.90;;;;;;100988.15;;;;107165;1275;64764;-35
2022/04/14 05:48:19;;;;;;;9.90;7.80;;;;;;100989.53;;;;107141;1274;64765;-36
2022/04/14 05:50:51;;;;;;;9.70;7.30;;;;;;100986.95;;;;107168;1275;64757;-35
2022/04/14 05:53:24;;;;;;;10.60;7.20;;;;;;100989.33;;;;107179;1274;64970;-35
2022/04/14 05:55:52;;;;;;;9.70;7.70;;;;;;100990.36;;;;107167;1275;68435;-36
2022/04/14 05:58:20;;;;;;;9.90;7.80;;;;;;100991.24;;;;107130;1275;64900;-35
2022/04/14 06:00:50;;;;;;;11.60;7.90;;;;;;100987.88;;;;107061;1277;64805;-36
2022/04/14 06:03:18;;;;;;;10.70;7.30;;;;;;100986.02;;;;107145;1275;64756;-35
2022/04/14 06:05:45;;;;;;;9.90;6.90;;;;;;100987.70;;;;107143;1274;64843;-36
2022/04/14 06:08:16;;;;;;;12.60;7.80;;;;;;100985.69;;;;107184;1274;66512;-36
2022/04/14 06:10:46;;;;;;;10.00;7.40;;;;;;100985.46;;;;107132;1275;64840;-31
2022/04/14 06:13:16;;;;;;;10.00;7.20;;;;;;100983.23;;;;107104;1277;64761;-32
2022/04/14 06:15:46;;;;;;;12.00;7.60;;;;;;100983.72;;;;107148;1275;64754;-36
2022/04/14 06:18:13;;;;;;;11.60;7.60;;;;;;100984.09;;;;107027;1276;64994;-34
2022/04/14 06:20:47;;;;;;;12.00;7.60;;;;;;100979.11;;;;107164;1274;66633;-31
2022/04/14 06:23:16;;;;;;;12.50;7.70;;;;;;100973.90;;;;107076;1277;65146;-31
2022/04/14 06:25:50;;;;;;;10.10;7.60;;;;;;100971.72;;;;107163;1274;64741;-35
2022/04/14 06:28:20;;;;;;;13.50;8.20;;;;;;100972.96;;;;107145;1277;65134;-35
2022/04/14 06:30:51;;;;;;;11.20;7.10;;;;;;100973.64;;;;107175;1274;64743;-32
2022/04/14 06:33:20;;;;;;;11.30;8.00;;;;;;100971.23;;;;107174;1274;66174;-31
2022/04/14 06:35:51;;;;;;;10.90;7.50;;;;;;100965.86;;;;107127;1275;64901;-31
2022/04/14 06:38:22;;;;;;;10.80;8.40;;;;;;100966.09;;;;107142;1274;64847;-35
2022/04/14 06:40:52;;;;;;;11.60;8.10;;;;;;100964.83;;;;107150;1276;64762;-36
2022/04/14 06:43:20;;;;;;;11.10;7.90;;;;;;100959.30;;;;107143;1275;64789;-36
2022/04/14 06:45:51;;;;;;;10.70;7.40;;;;;;100955.52;;;;106984;1277;64853;-31
2022/04/14 06:48:18;;;;;;;10.00;7.70;;;;;;100955.95;;;;107051;1277;64692;-29
2022/04/14 06:50:49;;;;;;;11.10;7.90;;;;;;100955.65;;;;107157;1275;64760;-36
2022/04/14 06:53:19;;;;;;;10.30;7.50;;;;;;100957.66;;;;107129;1277;64852;-35
2022/04/14 06:55:49;;;;;;;10.20;7.40;;;;;;100953.77;;;;107177;1274;64725;-35
2022/04/14 06:58:17;;;;;;;9.70;7.30;;;;;;100949.17;;;;107162;1274;66492;-35
2022/04/14 07:00:47;;;;;;;11.50;7.70;;;;;;100945.67;;;;107149;1275;64770;-36
2022/04/14 07:03:15;;;;;;;10.90;6.90;;;;;;100946.04;;;;107115;1275;64861;-35
2022/04/14 07:05:42;;;;;;;10.00;7.60;;;;;;100946.92;;;;107135;1277;64754;-36
2022/04/14 07:08:09;;;;;;;10.40;6.80;;;;;;100945.33;;;;107007;1277;66262;-35
2022/04/14 07:10:36;;;;;;;10.90;7.20;;;;;;100942.88;;;;107172;1275;65856;-36
2022/04/14 07:13:07;;;;;;;10.10;7.80;;;;;;100941.73;;;;107126;1277;64765;-36
2022/04/14 07:15:34;;;;;;;11.00;7.50;;;;;;100938.71;;;;107189;1277;64728;-32
2022/04/14 07:18:06;;;;;;;11.10;7.60;;;;;;100934.47;;;;107200;1275;64822;-38
2022/04/14 07:20:34;;;;;;;10.90;7.90;;;;;;100933.70;;;;106978;1280;64833;-35
2022/04/14 07:23:05;;;;;;;10.50;7.50;;;;;;100927.42;;;;107021;1279;66828;-36
2022/04/14 07:25:34;;;;;;;12.30;7.40;;;;;;100928.59;;;;107021;1277;64877;-31
2022/04/14 07:28:01;;;;;;;11.30;7.00;;;;;;100931.30;;;;107059;1276;64710;-32
2022/04/14 07:30:29;;;;;;;12.40;7.40;;;;;;100933.41;;;;107044;1276;64859;-36
2022/04/14 07:32:56;;;;;;;11.20;7.80;;;;;;100937.29;;;;107085;1276;64817;-38
2022/04/14 07:35:25;;;;;;;11.00;7.60;;;;;;100937.52;;;;106973;1276;67344;-41
2022/04/14 07:37:53;;;;;;;11.20;7.20;;;;;;100936.45;;;;107039;1276;66210;-42
2022/04/14 07:40:21;;;;;;;10.30;6.60;;;;;;100931.03;;;;107022;1276;64841;-41
2022/04/14 07:42:49;;;;;;;10.80;7.30;;;;;;100925.61;;;;107072;1276;64879;-36
2022/04/14 07:45:17;;;;;;;10.70;6.80;;;;;;100924.59;;;;107029;1277;64873;-38
2022/04/14 07:47:45;;;;;;;11.60;8.10;;;;;;100926.73;;;;107096;1277;66166;-40
2022/04/14 07:50:20;;;;;;;10.70;7.10;;;;;;100930.16;;;;106997;1276;64861;-31
2022/04/14 07:52:56;;;;;;;10.90;7.00;;;;;;100924.47;;;;106989;1279;64743;-30
2022/04/14 07:55:30;;;;;;;8.90;6.60;;;;;;100919.14;;;;107101;1276;64743;-40
2022/04/14 07:58:07;;;;;;;12.70;7.50;;;;;;100920.38;;;;107002;1280;64753;-35
2022/04/14 08:00:39;;;;;;;11.50;7.50;;;;;;100923.27;;;;107100;1276;66376;-39
2022/04/14 08:03:09;;;;;;;9.40;6.90;;;;;;100922.10;;;;106954;1276;64949;-38
2022/04/14 08:05:39;;;;;;;11.00;6.70;;;;;;100917.88;;;;107073;1276;64870;-30
2022/04/14 08:08:11;;;;;;;11.10;7.20;;;;;;100913.13;;;;106811;1278;64774;-32
2022/04/14 08:10:43;;;;;;;13.70;6.60;;;;;;100913.06;;;;107004;1278;64768;-31
2022/04/14 08:13:11;;;;;;;11.90;7.20;;;;;;100917.05;;;;106990;1278;67352;-40
2022/04/14 08:15:39;;;;;;;10.50;6.70;;;;;;100919.48;;;;107028;1277;64768;-36
2022/04/14 08:18:09;;;;;;;11.20;7.70;;;;;;100918.89;;;;106974;1277;64712;-34
2022/04/14 08:20:40;;;;;;;12.50;7.00;;;;;;100916.28;;;;106941;1277;63667;-45
2022/04/14 08:23:14;;;;;;;8.80;6.60;;;;;;100909.70;;;;107057;1278;64783;-39
2022/04/14 08:25:41;;;;;;;;;;;;;;100913.55;;;;106983;1279;67277;-29
2022/04/14 08:28:08;;;;;;;11.70;6.90;;;;;;100907.98;;;;106962;1278;64921;-31
2022/04/14 08:30:36;;;;;;;11.60;7.80;;;;;;100906.70;;;;107033;1277;64890;-41
2022/04/14 08:33:07;;;;;;;12.20;7.30;;;;;;100904.09;;;;106995;1278;64923;-30
2022/04/14 08:35:36;;;;;;;12.70;7.20;;;;;;100903.63;;;;106964;1279;64962;-40
2022/04/14 08:38:07;;;;;;;11.00;6.60;;;;;;100906.13;;;;107050;1278;66264;-39
2022/04/14 08:40:39;;;;;;;11.20;7.30;;;;;;100904.76;;;;106987;1279;64880;-31
2022/04/14 08:43:09;;;;;;;9.70;6.30;;;;;;100906.25;;;;106997;1279;64835;-33
2022/04/14 08:45:47;;;;;;;11.70;6.60;;;;;;100906.27;;;;106983;1279;64881;-36
2022/04/14 08:48:20;;;;;;;9.80;6.30;;;;;;100906.53;;;;106990;1280;64797;-40
2022/04/14 08:50:50;;;;;;;11.70;6.40;;;;;;100910.56;;;;107003;1279;67139;-32
2022/04/14 08:53:25;;;;;;;12.20;7.00;;;;;;100908.56;;;;107019;1278;64758;-40
2022/04/14 08:55:53;;;;;;;10.60;6.10;;;;;;100904.88;;;;107029;1277;64982;-31
2022/04/14 08:58:26;;;;;;;8.60;6.10;;;;;;100910.71;;;;106956;1279;64767;-31
2022/04/14 09:00:57;;;;;;;9.10;6.60;;;;;;100905.73;;;;106985;1279;64764;-31
2022/04/14 09:03:27;;;;;;;9.70;6.00;;;;;;100900.20;;;;107029;1277;67124;-31
2022/04/14 09:05:57;;;;;;;9.70;5.90;;;;;;100897.86;;;;107025;1277;64879;-40
2022/04/14 09:08:26;;;;;;;9.90;6.20;;;;;;100893.91;;;;106984;1279;64769;-40
2022/04/14 09:10:54;;;;;;;10.10;6.80;;;;;;100892.13;;;;106937;1279;64901;-40
2022/04/14 09:13:21;;;;;;;10.00;6.10;;;;;;100888.67;;;;107004;1279;64842;-30
2022/04/14 09:15:49;;;;;;;8.20;5.30;;;;;;100886.11;;;;107034;1278;64802;-40
2022/04/14 09:18:17;;;;;;;9.30;5.90;;;;;;100878.64;;;;106977;1279;64783;-40
2022/04/14 09:20:48;;;;;;;9.10;6.20;;;;;;100882.41;;;;107114;1276;64778;-40
2022/04/14 09:23:26;;;;;;;8.50;5.90;;;;;;100876.73;;;;107122;1276;64677;-39
2022/04/14 09:26:13;;;;;;;7.70;5.00;;;;;;100879.59;;;;107052;1278;64922;-32
2022/04/14 09:28:42;;;;;;;9.30;5.50;;;;;;100872.31;;;;107149;1277;67563;-31
2022/04/14 09:31:11;;;;;;;9.30;6.30;;;;;;100870.06;;;;106981;1277;64884;-31
2022/04/14 09:33:48;;;;;;;9.50;5.70;;;;;;100863.60;;;;107156;1276;64749;-31
2022/04/14 09:36:18;;;;;;;8.90;6.10;;;;;;100862.23;;;;107126;1275;64788;-31
2022/04/14 09:38:59;;;;;;;8.10;5.90;;;;;;100855.44;;;;107181;1277;64806;-30
2022/04/14 09:41:39;;;;;;;9.90;6.40;;;;;;100848.04;;;;107147;1277;66889;-41
2022/04/14 09:44:12;;;;;;;9.80;5.50;;;;;;100847.41;;;;107085;1275;64902;-39
2022/04/14 09:46:43;;;;;;;9.80;6.10;;;;;;100847.97;;;;107099;1276;64735;-40
2022/04/14 09:49:14;;;;;;;9.40;6.20;;;;;;100835.69;;;;107134;1277;64754;-31
2022/04/14 09:51:44;;;;;;;8.40;5.60;;;;;;100831.24;;;;107129;1277;64964;-29
2022/04/14 09:54:17;;;;;;;10.30;5.70;;;;;;100826.20;;;;107154;1275;66432;-39
2022/04/14 09:56:54;;;;;;;9.00;5.10;;;;;;100824.02;;;;107148;1277;64710;-40
2022/04/14 09:59:28;;;;;;;7.90;5.50;;;;;;100820.42;;;;107119;1275;64979;-40
2022/04/14 10:02:21;;;;;;;8.30;5.30;;;;;;100816.19;;;;107055;1277;64897;-45
2022/04/14 10:04:49;;;;;;;8.10;5.40;;;;;;100809.42;;;;107067;1277;64749;-34
2022/04/14 10:07:20;;;;;;;8.70;5.20;;;;;;100809.00;;;;107135;1274;66303;-34
2022/04/14 10:09:50;;;;;;;7.80;4.90;;;;;;100812.27;;;;107106;1277;65533;-32
2022/04/14 10:12:17;;;;;;;8.10;5.20;;;;;;100814.29;;;;107125;1277;64765;-31
2022/04/14 10:15:09;;;;;;;8.30;5.30;;;;;;100813.98;;;;107090;1277;64732;-31
2022/04/14 10:17:40;;;;;;;8.40;5.00;;;;;;100805.77;;;;107127;1277;64719;-30
2022/04/14 10:20:10;;;;;;;8.60;4.90;;;;;;100806.10;;;;107032;1278;67777;-31
2022/04/14 10:22:38;;;;;;;8.00;4.90;;;;;;100803.89;;;;107102;1277;64738;-29
2022/04/14 10:25:07;;;;;;;8.20;4.90;;;;;;100807.52;;;;107142;1277;64905;-46
2022/04/14 10:27:37;;;;;;;7.80;4.80;;;;;;100802.12;;;;107010;1278;64775;-37
2022/04/14 10:30:06;;;;;;;7.10;4.70;;;;;;100800.09;;;;107166;1277;64753;-40
2022/04/14 10:32:36;;;;;;;6.60;4.60;;;;;;100796.69;;;;107129;1277;65900;-40
2022/04/14 10:35:08;;;;;;;8.70;4.60;;;;;;100795.40;;;;107122;1277;64842;-39
2022/04/14 10:37:45;;;;;;;6.80;3.90;;;;;;100791.69;;;;107025;1278;64847;-40
2022/04/14 10:40:14;;;;;;;7.20;4.60;;;;;;100785.09;;;;107007;1277;64859;-27
2022/04/14 10:42:50;;;;;;;7.90;5.00;;;;;;100781.31;;;;106983;1278;64862;-29
2022/04/14 10:45:21;;;;;;;8.30;4.80;;;;;;100781.12;;;;107101;1275;67207;-40
2022/04/14 10:47:55;;;;;;;6.70;4.30;;;;;;100775.57;;;;107124;1277;64736;-38
2022/04/14 10:50:33;;;;;;;6.40;4.00;;;;;;100772.02;;;;107115;1277;64751;-28
2022/04/14 10:53:04;;;;;;;;;;;;;;100772.05;;;;107104;1277;64738;-29
2022/04/14 10:55:47;;;;;;;6.20;4.10;;;;;;100771.42;;;;107124;1277;64802;-38
2022/04/14 10:58:26;;;;;;;6.80;4.10;;;;;;100771.05;;;;107031;1278;67309;-38
2022/04/14 11:00:55;;;;;;;7.60;4.50;;;;;;100762.84;;;;107112;1277;64985;-37
2022/04/14 11:03:55;;;;;;;7.60;4.20;;;;;;100759.66;;;;107050;1278;64890;-38
2022/04/14 11:06:41;;;;;;;6.30;4.00;;;;;;100754.58;;;;107007;1274;64866;-37
2022/04/14 11:09:43;;;;;;;6.70;3.90;;;;;;100746.52;;;;107103;1275;65424;-39
2022/04/14 11:12:27;;;;;;;7.50;4.00;;;;;;100745.37;;;;107100;1275;65690;-42
2022/04/14 11:15:10;;;;;;;6.40;4.10;;;;;;100746.50;;;;107110;1275;62172;-41
2022/04/14 11:17:37;;;;;;;5.90;4.00;;;;;;100737.70;;;;107143;1274;64759;-37
2022/04/14 11:20:22;;;;;;;6.50;3.90;;;;;;100745.60;;;;107095;1276;64741;-29
2022/04/14 11:23:17;;;;;;;7.60;3.80;;;;;;100734.41;;;;107153;1275;64769;-29
2022/04/14 11:25:50;;;;;;;6.40;4.20;;;;;;100725.77;;;;107123;1275;67381;-28
2022/04/14 11:28:30;;;;;;;;;;;;;;100727.98;;;;107101;1275;64728;-29
2022/04/14 11:31:00;;;;;;;5.90;3.70;;;;;;100719.83;;;;107107;1275;64862;-38
2022/04/14 11:33:30;;;;;;;5.80;3.70;;;;;;100716.77;;;;107139;1274;64863;-31
2022/04/14 11:36:20;;;;;;;5.60;3.10;;;;;;100714.19;;;;107071;1275;64760;-28
2022/04/14 11:39:04;;;;;;;6.10;3.60;;;;;;100716.68;;;;107110;1274;67685;-28
2022/04/14 11:41:38;;;;;;;6.30;3.50;;;;;;100712.48;;;;107110;1274;64869;-29
2022/04/14 11:44:22;;;;;;;5.90;3.30;;;;;;100706.77;;;;107130;1277;64626;-30
2022/04/14 11:46:54;;;;;;;;;;;;;;100704.72;;;;107109;1275;65508;-30
2022/04/14 11:49:32;;;;;;;5.80;3.30;;;;;;100707.36;;;;107130;1274;62222;-28
2022/04/14 11:52:05;;;;;;;5.70;3.20;;;;;;100697.95;;;;107053;1274;67505;-27
2022/04/14 11:54:38;;;;;;;6.70;3.70;;;;;;100692.51;;;;107011;1278;64820;-29
2022/04/14 11:57:18;;;;;;;7.70;3.30;;;;;;100690.27;;;;107112;1275;64744;-29
2022/04/14 11:59:47;;;;;;;6.20;3.90;;;;;;100688.26;;;;107139;1275;64961;-28
2022/04/14 12:02:26;;;;;;;5.30;3.40;;;;;;100691.37;;;;107157;1274;64837;-28
2022/04/14 12:04:57;;;;;;;6.90;3.60;;;;;;100689.05;;;;107133;1278;66486;-44
2022/04/14 12:07:32;;;;;;;5.80;3.30;;;;;;100682.91;;;;107134;1278;65520;-44
2022/04/14 12:10:04;;;;;;;6.00;3.60;;;;;;100678.22;;;;107146;1278;64777;-43
2022/04/14 12:12:34;;;;;;;5.30;3.30;;;;;;100672.27;;;;107054;1278;64835;-43
2022/04/14 12:15:07;;;;;;;6.10;3.70;;;;;;100674.41;;;;106805;1278;301293;-43
2022/04/14 12:17:36;;;;;;;5.40;3.40;;;;;;100668.73;;;;107410;1277;65801;-43
2022/04/14 12:20:05;;;;;;;6.80;3.90;;;;;;100662.33;;;;107120;1278;64761;-43
2022/04/14 12:22:34;;;;;;;5.30;3.10;;;;;;100661.45;;;;107145;1278;64759;-43
2022/04/14 12:25:12;;;;;;;4.90;3.30;;;;;;100658.20;;;;107166;1276;64900;-43
2022/04/14 12:27:39;;;;;;;5.40;3.30;;;;;;100652.62;;;;107144;1277;64809;-42
2022/04/14 12:30:14;;;;;;;5.90;3.70;;;;;;100647.98;;;;107118;1277;65861;-42
2022/04/14 12:32:46;;;;;;;6.40;3.70;;;;;;100647.59;;;;107059;1278;64907;-43
2022/04/14 12:35:39;;;;;;;5.30;3.50;;;;;;100645.52;;;;107119;1278;64882;-44
2022/04/14 12:38:21;;;;;;;6.00;3.70;;;;;;100642.10;;;;107117;1277;64749;-43
2022/04/14 12:41:01;;;;;;;5.70;3.50;;;;;;100634.98;;;;107132;1277;64783;-42
2022/04/14 12:43:39;;;;;;;6.40;3.60;;;;;;100634.16;;;;107092;1277;66079;-38
2022/04/14 12:46:37;;;;;;;5.90;3.20;;;;;;100632.40;;;;106951;1280;64762;-26
2022/04/14 12:49:11;;;;;;;5.20;3.30;;;;;;100628.79;;;;107162;1277;64727;-38
2022/04/14 12:51:50;;;;;;;6.20;3.40;;;;;;100627.70;;;;106987;1277;64850;-42
2022/04/14 12:54:18;;;;;;;5.30;3.20;;;;;;100623.36;;;;107114;1277;64786;-30
2022/04/14 12:57:01;;;;;;;5.80;3.30;;;;;;100622.45;;;;107109;1277;65946;-30
2022/04/14 12:59:31;;;;;;;5.00;3.10;;;;;;100622.48;;;;107046;1278;64788;-34
2022/04/14 13:02:01;;;;;;;5.50;3.40;;;;;;100619.42;;;;107124;1276;64776;-35